createdAt,value
2023-04-10T00:01:08.603Z,0.00
2023-04-10T00:06:09.328Z,0.00
2023-04-10T00:11:10.037Z,0.00
2023-04-10T00:16:10.811Z,0.00
2023-04-10T00:21:11.476Z,0.00
2023-04-10T00:26:12.193Z,0.00
2023-04-10T00:31:12.920Z,0.00
2023-04-10T00:36:13.674Z,0.00
2023-04-10T00:41:14.414Z,0.00
2023-04-10T00:46:15.176Z,0.00
2023-04-10T00:51:15.934Z,0.00
2023-04-10T00:56:16.657Z,0.00
2023-04-10T01:01:17.452Z,0.00
2023-04-10T01:06:18.114Z,0.00
2023-04-10T01:11:18.818Z,0.00
2023-04-10T01:16:19.557Z,0.00
2023-04-10T01:21:20.253Z,0.00
2023-04-10T01:26:20.945Z,0.00
2023-04-10T01:31:21.803Z,0.00
2023-04-10T01:36:22.154Z,0.00
2023-04-10T01:41:22.828Z,0.00
2023-04-10T01:46:23.617Z,0.00
2023-04-10T01:51:24.301Z,0.00
2023-04-10T01:56:25.027Z,0.00
2023-04-10T02:01:29.821Z,0.00
2023-04-10T02:06:26.532Z,0.00
2023-04-10T02:11:27.258Z,0.00
2023-04-10T02:16:28.022Z,0.00
2023-04-10T02:21:28.748Z,0.00
2023-04-10T02:26:29.459Z,0.00
2023-04-10T02:31:30.232Z,0.00
2023-04-10T02:36:30.902Z,0.00
2023-04-10T02:41:31.626Z,0.00
2023-04-10T02:46:32.374Z,0.00
2023-04-10T02:51:33.077Z,0.00
2023-04-10T02:56:33.761Z,0.00
2023-04-10T03:01:34.534Z,0.00
2023-04-10T03:06:35.244Z,0.00
2023-04-10T03:11:35.979Z,0.00
2023-04-10T03:16:36.853Z,0.00
2023-04-10T03:21:37.138Z,0.00
2023-04-10T03:26:37.856Z,0.00
2023-04-10T03:31:38.648Z,0.00
2023-04-10T03:36:39.346Z,0.00
2023-04-10T03:41:40.053Z,0.00
2023-04-10T03:46:40.841Z,0.00
2023-04-10T03:51:41.496Z,0.00
2023-04-10T03:56:42.162Z,2.00
2023-04-10T04:01:42.914Z,1.00
2023-04-10T04:06:43.601Z,2.00
2023-04-10T04:11:51.274Z,6.00
2023-04-10T04:16:44.920Z,13.00
2023-04-10T04:21:45.569Z,48.00
2023-04-10T04:26:46.219Z,50.00
2023-04-10T04:31:46.986Z,88.00
2023-04-10T04:36:47.646Z,183.00
2023-04-10T04:41:48.286Z,240.00
2023-04-10T04:46:48.987Z,287.00
2023-04-10T04:51:49.622Z,409.00
2023-04-10T04:56:50.275Z,466.00
2023-04-10T05:01:51.057Z,546.00
2023-04-10T05:06:51.830Z,428.00
2023-04-10T05:11:52.460Z,821.00
2023-04-10T05:16:53.125Z,1174.00
2023-04-10T05:21:53.781Z,1018.00
2023-04-10T05:26:54.468Z,1249.00
2023-04-10T05:31:55.104Z,1438.00
2023-04-10T05:36:58.821Z,1650.00
2023-04-10T05:41:56.717Z,1857.00
2023-04-10T05:46:57.340Z,1998.00
2023-04-10T05:51:58.047Z,2123.00
2023-04-10T05:56:58.654Z,2236.00
2023-04-10T06:01:59.403Z,2485.00
2023-04-10T06:07:00.023Z,2545.00
2023-04-10T06:12:00.680Z,2680.00
2023-04-10T06:17:01.413Z,2783.00
2023-04-10T06:22:02.003Z,2722.00
2023-04-10T06:27:02.686Z,2634.00
2023-04-10T06:32:03.328Z,2616.00
2023-04-10T06:37:04.014Z,2679.00
2023-04-10T06:42:04.672Z,2385.00
2023-04-10T06:47:05.374Z,2147.00
2023-04-10T06:52:06.012Z,2338.00
2023-04-10T06:57:06.653Z,2536.00
2023-04-10T07:02:07.350Z,2692.00
2023-04-10T07:07:08.058Z,2597.00
2023-04-10T07:12:08.732Z,2763.00
2023-04-10T07:17:09.365Z,2869.00
2023-04-10T07:22:10.015Z,2743.00
2023-04-10T07:27:10.836Z,2598.00
2023-04-10T07:32:11.682Z,2800.00
2023-04-10T07:37:12.349Z,2523.00
2023-04-10T07:42:13.018Z,3247.00
2023-04-10T07:47:13.675Z,3254.00
2023-04-10T07:52:14.313Z,3405.00
2023-04-10T07:57:14.958Z,3665.00
2023-04-10T08:02:15.742Z,3762.00
2023-04-10T08:07:16.383Z,3828.00
2023-04-10T08:12:17.024Z,3940.00
2023-04-10T08:17:17.727Z,4011.00
2023-04-10T08:22:18.362Z,4512.00
2023-04-10T08:27:19.050Z,4549.00
2023-04-10T08:32:19.694Z,4333.00
2023-04-10T08:37:20.374Z,4549.00
2023-04-10T08:42:21.009Z,4779.00
2023-04-10T08:47:21.744Z,5012.00
2023-04-10T08:52:22.395Z,4683.00
2023-04-10T08:57:23.057Z,5120.00
2023-04-10T09:02:23.922Z,4772.00
2023-04-10T09:07:24.392Z,5714.00
2023-04-10T09:12:25.063Z,5582.00
2023-04-10T09:17:25.728Z,5997.00
2023-04-10T09:22:26.351Z,5944.00
2023-04-10T09:27:27.007Z,6053.00
2023-04-10T09:32:27.704Z,5849.00
2023-04-10T09:37:28.371Z,6331.00
2023-04-10T09:42:29.132Z,6127.00
2023-04-10T09:47:29.920Z,6259.00
2023-04-10T09:52:30.574Z,6093.00
2023-04-10T09:57:31.270Z,6329.00
2023-04-10T10:02:32.310Z,6584.00
2023-04-10T10:07:32.515Z,6546.00
2023-04-10T10:12:40.182Z,6660.00
2023-04-10T10:17:33.906Z,7415.00
2023-04-10T10:22:34.530Z,7188.00
2023-04-10T10:27:35.168Z,7009.00
2023-04-10T10:32:35.901Z,7298.00
2023-04-10T10:37:36.530Z,6872.00
2023-04-10T10:42:37.219Z,7813.00
2023-04-10T10:47:37.876Z,6995.00
2023-04-10T10:52:38.501Z,2587.00
2023-04-10T10:57:39.156Z,8453.00
2023-04-10T11:02:40.008Z,7709.00
2023-04-10T11:07:40.694Z,5512.00
2023-04-10T11:12:41.343Z,1023.00
2023-04-10T11:17:42.068Z,7433.00
2023-04-10T11:22:42.738Z,6220.00
2023-04-10T11:27:43.374Z,1056.00
2023-04-10T11:32:44.021Z,6621.00
2023-04-10T11:37:44.659Z,7450.00
2023-04-10T11:42:45.353Z,7745.00
2023-04-10T11:47:45.965Z,7846.00
2023-04-10T11:52:46.597Z,7824.00
2023-04-10T11:57:47.252Z,7487.00
2023-04-10T12:02:48.142Z,7428.00
2023-04-10T12:07:48.799Z,6594.00
2023-04-10T12:12:49.448Z,6191.00
2023-04-10T12:17:50.274Z,6905.00
2023-04-10T12:22:50.888Z,7887.00
2023-04-10T12:27:51.565Z,7146.00
2023-04-10T12:32:52.284Z,7213.00
2023-04-10T12:37:52.954Z,6435.00
2023-04-10T12:42:53.582Z,7059.00
2023-04-10T12:47:54.272Z,5485.00
2023-04-10T12:52:54.961Z,5707.00
2023-04-10T12:57:55.594Z,7013.00
2023-04-10T13:02:56.473Z,6613.00
2023-04-10T13:07:56.722Z,6315.00
2023-04-10T13:12:57.343Z,6215.00
2023-04-10T13:17:58.040Z,4548.00
2023-04-10T13:22:58.663Z,6602.00
2023-04-10T13:27:59.337Z,6644.00
2023-04-10T13:33:00.070Z,5529.00
2023-04-10T13:38:00.809Z,5572.00
2023-04-10T13:43:01.438Z,4228.00
2023-04-10T13:48:02.130Z,2708.00
2023-04-10T13:53:02.749Z,815.00
2023-04-10T13:58:03.386Z,5171.00
2023-04-10T14:03:04.215Z,850.00
2023-04-10T14:08:04.953Z,5259.00
2023-04-10T14:13:05.611Z,889.00
2023-04-10T14:18:06.306Z,6552.00
2023-04-10T14:23:06.975Z,4845.00
2023-04-10T14:28:07.610Z,1839.00
2023-04-10T14:33:08.276Z,4388.00
2023-04-10T14:38:08.923Z,760.00
2023-04-10T14:43:09.604Z,5296.00
2023-04-10T14:48:10.276Z,6160.00
2023-04-10T14:53:10.976Z,4205.00
2023-04-10T14:58:11.619Z,3004.00
2023-04-10T15:03:12.343Z,4393.00
2023-04-10T15:08:12.987Z,3781.00
2023-04-10T15:13:13.630Z,3305.00
2023-04-10T15:18:14.273Z,5113.00
2023-04-10T15:23:14.973Z,4089.00
2023-04-10T15:28:15.600Z,3220.00
2023-04-10T15:33:16.263Z,2745.00
2023-04-10T15:38:16.896Z,3169.00
2023-04-10T15:43:17.596Z,2622.00
2023-04-10T15:48:18.201Z,3800.00
2023-04-10T15:53:18.860Z,3804.00
2023-04-10T15:58:19.526Z,2963.00
2023-04-10T16:03:20.308Z,2746.00
2023-04-10T16:08:20.981Z,2472.00
2023-04-10T16:13:28.632Z,2152.00
2023-04-10T16:18:22.265Z,1711.00
2023-04-10T16:23:22.935Z,1881.00
2023-04-10T16:28:23.566Z,1783.00
2023-04-10T16:33:24.227Z,1778.00
2023-04-10T16:38:24.877Z,1684.00
2023-04-10T16:43:25.555Z,1664.00
2023-04-10T16:48:26.203Z,1658.00
2023-04-10T16:53:26.840Z,1468.00
2023-04-10T16:58:27.492Z,1212.00
2023-04-10T17:03:28.232Z,934.00
2023-04-10T17:08:28.858Z,725.00
2023-04-10T17:13:29.508Z,594.00
2023-04-10T17:18:30.182Z,515.00
2023-04-10T17:23:30.820Z,467.00
2023-04-10T17:28:31.460Z,437.00
2023-04-10T17:33:32.127Z,398.00
2023-04-10T17:38:32.771Z,331.00
2023-04-10T17:43:33.422Z,240.00
2023-04-10T17:48:34.126Z,157.00
2023-04-10T17:53:34.788Z,98.00
2023-04-10T17:58:35.464Z,61.00
2023-04-10T18:03:36.197Z,40.00
2023-04-10T18:08:36.839Z,24.00
2023-04-10T18:13:37.498Z,12.00
2023-04-10T18:18:38.174Z,7.00
2023-04-10T18:23:38.810Z,3.00
2023-04-10T18:28:39.454Z,1.00
2023-04-10T18:33:40.205Z,0.00
2023-04-10T18:38:40.959Z,0.00
2023-04-10T18:43:42.387Z,0.00
2023-04-10T18:48:42.103Z,0.00
2023-04-10T18:53:42.824Z,0.00
2023-04-10T18:58:43.506Z,0.00
2023-04-10T19:03:44.375Z,0.00
2023-04-10T19:08:44.788Z,0.00
2023-04-10T19:13:45.556Z,0.00
2023-04-10T19:18:46.221Z,0.00
2023-04-10T19:23:46.922Z,0.00
2023-04-10T19:28:47.651Z,0.00
2023-04-10T19:33:48.334Z,0.00
2023-04-10T19:38:49.030Z,0.00
2023-04-10T19:43:49.763Z,0.00
2023-04-10T19:48:50.458Z,0.00
2023-04-10T19:53:51.147Z,0.00
2023-04-10T19:58:51.858Z,0.00
2023-04-10T20:03:52.641Z,0.00
2023-04-10T20:08:53.961Z,0.00
2023-04-10T20:13:54.372Z,0.00
2023-04-10T20:18:55.370Z,0.00
2023-04-10T20:23:55.755Z,0.00
2023-04-10T20:28:56.555Z,0.00
2023-04-10T20:33:57.269Z,0.00
2023-04-10T20:38:58.003Z,0.00
2023-04-10T20:43:58.692Z,0.00
2023-04-10T20:48:59.410Z,0.00
2023-04-10T20:54:00.141Z,0.00
2023-04-10T20:59:00.850Z,0.00
2023-04-10T21:04:01.625Z,0.00
2023-04-10T21:09:02.411Z,0.00
2023-04-10T21:14:03.120Z,0.00
2023-04-10T21:19:03.916Z,0.00
2023-04-10T21:24:04.591Z,0.00
2023-04-10T21:29:05.296Z,0.00
2023-04-10T21:34:06.029Z,0.00
2023-04-10T21:39:06.710Z,0.00
2023-04-10T21:44:07.421Z,0.00
2023-04-10T21:49:08.139Z,0.00
2023-04-10T21:54:08.817Z,0.00
2023-04-10T21:59:09.517Z,0.00
2023-04-10T22:04:10.375Z,0.00
2023-04-10T22:09:10.707Z,0.00
2023-04-10T22:14:20.770Z,0.00
2023-04-10T22:19:12.071Z,0.00
2023-04-10T22:24:12.796Z,0.00
2023-04-10T22:29:13.478Z,0.00
2023-04-10T22:34:14.206Z,0.00
2023-04-10T22:39:14.888Z,0.00
2023-04-10T22:44:15.607Z,0.00
2023-04-10T22:49:16.289Z,0.00
2023-04-10T22:54:16.993Z,0.00
2023-04-10T22:59:17.727Z,0.00
2023-04-10T23:04:18.529Z,0.00
2023-04-10T23:09:19.214Z,0.00
2023-04-10T23:14:19.926Z,0.00
2023-04-10T23:19:20.644Z,0.00
2023-04-10T23:24:21.327Z,0.00
2023-04-10T23:29:22.035Z,0.00
2023-04-10T23:34:22.760Z,0.00
2023-04-10T23:39:23.431Z,0.00
2023-04-10T23:44:24.135Z,0.00
2023-04-10T23:49:24.867Z,0.00
2023-04-10T23:54:25.542Z,0.00
2023-04-10T23:59:26.244Z,0.00
